Time;durP1;ratioP1;P1;durP2;ratioP2;P2;SDS_P1;SDS_P2;PMS_P1;PMS_P2;Temp;Humidity;BMP_temperature;BMP_pressure;BME280_temperature;BME280_humidity;BME280_pressure;Samples;Min_cycle;Max_cycle;Signal;HPM_P1;HPM_P2
2021/12/20 00:00:23;;;;;;;47.37;44.13;;;;;;;7.50;100.00;103266.23;1934448;73;26292;-71
2021/12/20 00:02:56;;;;;;;46.37;43.07;;;;;;;7.51;100.00;103272.09;1967927;72;26235;-71
2021/12/20 00:05:27;;;;;;;46.57;43.17;;;;;;;7.52;100.00;103266.89;1937832;73;26811;-71
2021/12/20 00:07:57;;;;;;;47.17;43.87;;;;;;;7.53;100.00;103271.38;2018225;70;26681;-71
2021/12/20 00:10:27;;;;;;;47.43;43.93;;;;;;;7.48;100.00;103272.52;1937204;73;26298;-73
2021/12/20 00:12:58;;;;;;;49.57;45.83;;;;;;;7.48;100.00;103269.23;2018250;70;26226;-71
2021/12/20 00:15:28;;;;;;;46.90;43.60;;;;;;;7.50;100.00;103264.85;2020204;70;26222;-73
2021/12/20 00:17:58;;;;;;;46.27;42.90;;;;;;;7.52;100.00;103262.22;2025942;70;26223;-71
2021/12/20 00:20:29;;;;;;;47.00;43.60;;;;;;;7.55;100.00;103260.95;1939582;73;26635;-72
2021/12/20 00:22:59;;;;;;;48.80;45.30;;;;;;;7.50;100.00;103251.88;1928198;73;26212;-71
2021/12/20 00:25:29;;;;;;;50.37;46.87;;;;;;;7.53;100.00;103252.02;1944103;73;26745;-71
2021/12/20 00:28:03;;;;;;;47.50;43.93;;;;;;;7.55;100.00;103251.27;1904317;74;26312;-73
2021/12/20 00:30:34;;;;;;;49.60;46.07;;;;;;;7.55;100.00;103249.87;1931778;74;26236;-73
2021/12/20 00:33:05;;;;;;;46.60;43.20;;;;;;;7.57;100.00;103247.22;1904197;75;26451;-73
2021/12/20 00:35:35;;;;;;;46.77;43.37;;;;;;;7.61;100.00;103244.92;1931901;74;26325;-71
2021/12/20 00:40:54;;;;;;;47.97;44.57;;;;;;;7.61;100.00;103238.00;1931760;74;26679;-73
2021/12/20 00:43:25;;;;;;;47.73;44.33;;;;;;;7.57;100.00;103239.48;1903521;75;26324;-73
2021/12/20 00:45:56;;;;;;;48.33;44.83;;;;;;;7.54;100.00;103244.02;1931011;74;26192;-71
2021/12/20 00:48:26;;;;;;;46.57;43.23;;;;;;;7.57;100.00;103240.30;1903384;75;26313;-71
2021/12/20 00:50:56;;;;;;;47.43;43.80;;;;;;;7.63;100.00;103233.09;1930977;74;26739;-73
2021/12/20 00:53:26;;;;;;;46.27;42.97;;;;;;;7.60;100.00;103230.23;1903480;75;26281;-73
2021/12/20 00:55:57;;;;;;;48.07;44.87;;;;;;;7.64;100.00;103227.90;1931093;74;26221;-72
2021/12/20 00:58:27;;;;;;;46.27;43.07;;;;;;;7.63;100.00;103217.88;1903296;75;26219;-73
2021/12/20 01:00:58;;;;;;;46.47;43.17;;;;;;;7.60;100.00;103227.98;1931356;74;26329;-72
2021/12/20 01:03:30;;;;;;;46.83;43.43;;;;;;;7.58;100.00;103220.41;1903583;75;26301;-73
2021/12/20 01:06:01;;;;;;;47.97;44.47;;;;;;;7.60;100.00;103212.78;1931171;74;26236;-73
2021/12/20 01:08:35;;;;;;;47.30;43.90;;;;;;;7.53;100.00;103208.59;1903374;75;26265;-72
2021/12/20 01:11:04;;;;;;;45.60;42.43;;;;;;;7.62;100.00;103204.58;1930525;74;26706;-72
2021/12/20 01:13:39;;;;;;;46.27;42.97;;;;;;;7.63;100.00;103204.91;1903372;75;26296;-71
2021/12/20 01:16:08;;;;;;;47.27;43.87;;;;;;;7.69;100.00;103204.62;1903064;75;26693;-71
2021/12/20 01:18:39;;;;;;;47.40;44.10;;;;;;;7.62;100.00;103210.11;1931100;74;26263;-72
2021/12/20 01:21:10;;;;;;;46.67;43.27;;;;;;;7.68;100.00;103195.98;1903520;75;26223;-70
2021/12/20 01:23:40;;;;;;;46.40;42.80;;;;;;;7.68;100.00;103200.14;1903539;75;26669;-73
2021/12/20 01:26:10;;;;;;;47.03;43.67;;;;;;;7.65;100.00;103205.57;1931109;74;26223;-71
2021/12/20 01:28:43;;;;;;;46.60;43.33;;;;;;;7.67;100.00;103198.42;1903220;75;26273;-71
2021/12/20 01:31:13;;;;;;;49.30;45.70;;;;;;;7.73;100.00;103202.61;1931167;74;26244;-70
2021/12/20 01:33:43;;;;;;;47.13;43.77;;;;;;;7.68;100.00;103195.98;1903441;75;26218;-71
2021/12/20 01:36:14;;;;;;;48.83;45.43;;;;;;;7.66;100.00;103189.80;1931125;74;26302;-71
2021/12/20 01:38:44;;;;;;;49.00;45.17;;;;;;;7.69;100.00;103194.94;1903382;75;26203;-71
2021/12/20 01:41:14;;;;;;;48.93;45.33;;;;;;;7.68;100.00;103194.60;1903450;75;26732;-73
2021/12/20 01:43:45;;;;;;;47.77;44.37;;;;;;;7.63;100.00;103186.07;1903519;75;26626;-71
2021/12/20 01:46:15;;;;;;;49.20;45.60;;;;;;;7.58;100.00;103188.08;1931299;74;26221;-70
2021/12/20 01:48:46;;;;;;;49.23;45.63;;;;;;;7.63;100.00;103197.14;1903533;75;26261;-70
2021/12/20 01:51:32;;;;;;;47.37;43.97;;;;;;;7.61;100.00;103193.22;1931079;74;26280;-71
2021/12/20 01:53:50;;;;;;;49.93;46.37;;;;;;;7.59;100.00;103191.17;1900861;75;26327;-73
2021/12/20 01:56:21;;;;;;;48.03;44.63;;;;;;;7.60;100.00;103190.13;1931191;74;26225;-71
2021/12/20 01:58:51;;;;;;;49.73;46.00;;;;;;;7.62;100.00;103185.74;1903424;75;26191;-73
2021/12/20 02:01:25;;;;;;;49.23;45.53;;;;;;;7.60;100.00;103190.13;1931191;74;26320;-73
2021/12/20 02:03:59;;;;;;;48.33;44.77;;;;;;;7.48;100.00;103201.47;1903572;75;26219;-71
2021/12/20 02:06:34;;;;;;;48.80;45.20;;;;;;;7.63;100.00;103186.93;1931304;74;26707;-71
2021/12/20 02:09:06;;;;;;;46.43;43.20;;;;;;;7.52;100.00;103184.78;1903529;75;26658;-71
2021/12/20 02:14:51;;;;;;;46.40;43.10;;;;;;;7.61;100.00;103178.00;1998717;71;32898;-75
2021/12/20 02:20:37;;;;;;;48.63;45.33;;;;;;;7.70;100.00;103165.66;2016980;71;32847;-75
2021/12/20 02:26:23;;;;;;;47.83;44.53;;;;;;;7.69;100.00;103165.36;2000741;71;32846;-73
2021/12/20 02:38:11;;;;;;;47.23;44.03;;;;;;;7.65;100.00;103152.16;1995454;71;32849;-71
2021/12/20 02:43:59;;;;;;;47.50;44.27;;;;;;;7.58;100.00;103150.73;2015166;71;32884;-75
2021/12/20 02:49:44;;;;;;;47.33;44.03;;;;;;;7.65;100.00;103141.09;2003893;71;33312;-72
2021/12/20 02:55:28;;;;;;;47.53;44.33;;;;;;;7.66;100.00;103146.39;2008131;71;32808;-73
2021/12/20 03:01:12;;;;;;;47.47;44.30;;;;;;;7.72;100.00;103128.11;2011100;71;32840;-72
2021/12/20 03:07:00;;;;;;;47.63;44.40;;;;;;;7.60;100.00;103120.97;2006080;71;32849;-71
2021/12/20 03:12:46;;;;;;;49.33;46.03;;;;;;;7.63;100.00;103117.77;2005657;71;32854;-73
2021/12/20 03:18:30;;;;;;;48.77;45.20;;;;;;;7.56;100.00;103105.86;2005631;71;32998;-72
2021/12/20 03:24:14;;;;;;;48.57;45.07;;;;;;;7.58;100.00;103109.78;2000924;71;32860;-72
2021/12/20 03:29:59;;;;;;;48.23;44.73;;;;;;;7.62;100.00;103109.15;2003832;71;32917;-73
2021/12/20 03:35:43;;;;;;;47.77;44.47;;;;;;;7.48;100.00;103097.77;2016649;71;32840;-75
2021/12/20 03:41:28;;;;;;;46.80;43.40;;;;;;;7.50;100.00;103101.69;2003925;71;32834;-73
2021/12/20 03:47:13;;;;;;;48.83;45.40;;;;;;;7.49;100.00;103091.67;2000497;71;33327;-75
2021/12/20 03:52:58;;;;;;;49.43;45.90;;;;;;;7.55;100.00;103087.55;1991491;70;32780;-73
2021/12/20 03:58:42;;;;;;;47.60;44.20;;;;;;;7.53;100.00;103084.69;2009488;71;32899;-72
2021/12/20 04:04:27;;;;;;;45.83;42.60;;;;;;;7.52;100.00;103072.77;2000840;71;33228;-75
2021/12/20 04:10:12;;;;;;;48.57;45.07;;;;;;;7.54;100.00;103062.34;2015121;71;32839;-72
2021/12/20 04:15:56;;;;;;;46.77;43.53;;;;;;;7.49;100.00;103062.11;2010148;71;32843;-73
2021/12/20 04:21:42;;;;;;;47.70;44.33;;;;;;;7.47;100.00;103062.02;1994906;71;33380;-72
2021/12/20 04:27:25;;;;;;;46.10;42.80;;;;;;;7.36;100.00;103066.23;2004125;71;33298;-72
2021/12/20 04:33:10;;;;;;;47.10;43.63;;;;;;;7.44;100.00;103067.45;1991549;71;32810;-72
2021/12/20 04:38:54;;;;;;;48.10;44.40;;;;;;;7.37;100.00;103065.70;2003846;71;33289;-73
2021/12/20 04:44:39;;;;;;;48.30;44.73;;;;;;;7.31;100.00;103066.04;2002250;71;32935;-72
2021/12/20 04:50:24;;;;;;;47.97;44.43;;;;;;;7.41;100.00;103079.43;2003843;71;33013;-72
2021/12/20 04:56:08;;;;;;;49.07;45.50;;;;;;;7.42;100.00;103068.70;2000682;71;32836;-74
2021/12/20 05:01:52;;;;;;;46.17;42.73;;;;;;;7.51;100.00;103075.73;1940687;71;39751;-74
2021/12/20 05:07:38;;;;;;;46.63;43.20;;;;;;;7.41;100.00;103079.43;2005558;71;32840;-74
2021/12/20 05:13:24;;;;;;;47.80;44.20;;;;;;;7.44;100.00;103074.36;1997028;71;32922;-74
2021/12/20 05:19:08;;;;;;;47.03;43.50;;;;;;;7.36;100.00;103054.35;2002478;71;32790;-74
2021/12/20 05:24:52;;;;;;;47.30;43.90;;;;;;;7.29;100.00;103057.95;2013422;71;32833;-74
2021/12/20 05:30:37;;;;;;;48.73;45.03;;;;;;;7.40;100.00;103060.64;2009509;71;32848;-72
2021/12/20 05:36:21;;;;;;;48.40;44.90;;;;;;;7.40;100.00;103055.11;2016694;71;32833;-75
2021/12/20 05:42:08;;;;;;;49.23;45.73;;;;;;;7.44;100.00;103060.53;2000774;71;32766;-74
2021/12/20 05:47:51;;;;;;;49.37;45.77;;;;;;;7.36;100.00;103067.62;2016703;71;33331;-73
2021/12/20 05:53:37;;;;;;;50.90;47.10;;;;;;;7.36;100.00;103065.41;2006357;71;32858;-75
2021/12/20 05:59:21;;;;;;;49.00;45.43;;;;;;;7.28;100.00;103064.53;2004427;71;32784;-72
2021/12/20 06:05:07;;;;;;;47.23;43.63;;;;;;;7.39;100.00;103071.37;1995309;71;32986;-72
2021/12/20 06:10:52;;;;;;;46.00;42.50;;;;;;;7.31;100.00;103074.33;2016879;71;32952;-73
2021/12/20 06:16:37;;;;;;;48.83;45.23;;;;;;;7.42;100.00;103070.08;2002864;71;32775;-75
2021/12/20 06:22:21;;;;;;;45.97;42.17;;;;;;;7.40;100.00;103081.91;1998640;71;33062;-72
2021/12/20 06:28:05;;;;;;;45.40;41.97;;;;;;;7.46;100.00;103081.90;1974520;72;33415;-75
2021/12/20 06:33:50;;;;;;;47.80;43.90;;;;;;;7.43;100.00;103082.86;2013219;71;33055;-70
2021/12/20 06:39:34;;;;;;;47.97;44.17;;;;;;;7.35;100.00;103067.84;2017071;71;33352;-71
2021/12/20 06:45:19;;;;;;;49.53;45.30;;;;;;;7.36;100.00;103079.23;2006369;71;32782;-74
2021/12/20 06:51:07;;;;;;;48.80;45.03;;;;;;;7.49;100.00;103084.77;1994705;71;32941;-71
2021/12/20 06:56:51;;;;;;;49.40;45.50;;;;;;;7.43;100.00;103085.62;1995205;71;32764;-73
2021/12/20 07:02:35;;;;;;;47.87;44.07;;;;;;;7.42;100.00;103084.77;2008211;71;33256;-76
2021/12/20 07:08:22;;;;;;;48.90;45.20;;;;;;;7.41;100.00;103087.20;2001304;71;32970;-71
2021/12/20 07:14:06;;;;;;;52.20;48.00;;;;;;;7.47;100.00;103082.23;2016703;71;32841;-74
2021/12/20 07:19:51;;;;;;;56.60;52.60;;;;;;;7.46;100.00;103088.81;2006287;71;32864;-74
2021/12/20 07:25:36;;;;;;;51.30;47.80;;;;;;;7.47;100.00;103081.38;2007805;71;33156;-73
2021/12/20 07:31:22;;;;;;;53.07;49.57;;;;;;;7.49;100.00;103084.23;2013520;71;32846;-73
2021/12/20 07:37:06;;;;;;;53.77;50.27;;;;;;;7.57;100.00;103077.11;2016817;71;32824;-73
2021/12/20 07:42:51;;;;;;;53.07;49.53;;;;;;;7.63;100.00;103075.43;1991716;71;32759;-73
2021/12/20 07:48:36;;;;;;;47.70;44.60;;;;;;;7.55;100.00;103064.05;1994952;71;32852;-73
2021/12/20 07:54:21;;;;;;;55.83;52.33;;;;;;;7.66;100.00;103062.55;2016934;71;33011;-73
2021/12/20 08:00:08;;;;;;;52.37;49.17;;;;;;;7.59;100.00;103057.02;1995417;71;33217;-73
2021/12/20 08:05:52;;;;;;;53.63;50.33;;;;;;;7.63;100.00;103058.83;2004505;71;33314;-71
2021/12/20 08:11:37;;;;;;;53.37;50.17;;;;;;;7.65;100.00;103059.48;1998458;71;32764;-73
2021/12/20 08:17:21;;;;;;;52.37;49.07;;;;;;;7.68;100.00;103057.67;2010142;71;32948;-73
2021/12/20 08:23:05;;;;;;;53.00;49.70;;;;;;;7.71;100.00;103060.86;2015265;71;32826;-73
2021/12/20 08:28:50;;;;;;;48.23;44.93;;;;;;;7.72;100.00;103059.80;2008246;71;32880;-73
2021/12/20 08:34:34;;;;;;;53.93;50.47;;;;;;;7.63;100.00;103049.16;2005945;71;33360;-73
2021/12/20 08:40:21;;;;;;;55.97;52.37;;;;;;;7.72;100.00;103054.80;2013016;71;32832;-73
2021/12/20 08:46:06;;;;;;;53.80;50.50;;;;;;;7.75;100.00;103058.52;2014927;71;32899;-72
2021/12/20 08:51:52;;;;;;;54.33;50.87;;;;;;;7.71;100.00;103057.23;2000157;71;32841;-72
2021/12/20 08:57:39;;;;;;;55.30;51.90;;;;;;;7.65;100.00;103059.48;2004614;71;33266;-75
2021/12/20 09:03:28;;;;;;;51.10;47.80;;;;;;;7.62;100.00;103068.19;1991751;71;33327;-72
2021/12/20 09:09:15;;;;;;;51.93;48.73;;;;;;;7.77;100.00;103068.84;2008101;71;32838;-69
2021/12/20 09:15:00;;;;;;;53.23;49.83;;;;;;;7.77;100.00;103066.94;2004152;70;32894;-74
2021/12/20 09:20:45;;;;;;;51.90;48.40;;;;;;;7.63;100.00;103052.77;2016924;71;32901;-73
2021/12/20 09:26:29;;;;;;;52.63;49.23;;;;;;;7.68;100.00;103058.52;1991207;71;32827;-77
2021/12/20 09:32:14;;;;;;;51.17;47.73;;;;;;;7.79;100.00;103063.41;2013289;70;32833;-78
2021/12/20 09:37:58;;;;;;;49.33;45.73;;;;;;;7.78;100.00;103070.03;2006000;71;32839;-79
2021/12/20 09:43:46;;;;;;;50.33;46.57;;;;;;;7.74;100.00;103065.95;2011615;71;32845;-77
2021/12/20 09:49:34;;;;;;;49.57;46.07;;;;;;;7.81;100.00;103067.89;2005734;71;32969;-73
2021/12/20 09:55:19;;;;;;;49.47;45.93;;;;;;;7.78;100.00;103065.03;1991552;71;32851;-75
2021/12/20 10:01:07;;;;;;;49.73;46.23;;;;;;;7.77;100.00;103071.61;2016882;71;33303;-72
2021/12/20 10:06:58;;;;;;;45.23;42.03;;;;;;;7.76;100.00;103071.29;2011306;71;32900;-74
2021/12/20 10:12:51;;;;;;;45.27;42.10;;;;;;;7.83;100.00;103079.61;2018586;71;32850;-73
2021/12/20 10:18:51;;;;;;;46.60;43.60;;;;;;;7.89;100.00;103072.67;2003992;71;32847;-71
2021/12/20 10:24:38;;;;;;;46.70;43.47;;;;;;;7.97;100.00;103077.13;2011237;71;32942;-73
2021/12/20 10:30:26;;;;;;;46.70;43.60;;;;;;;7.92;100.00;103073.63;2006504;71;32891;-75
2021/12/20 10:36:13;;;;;;;47.13;44.13;;;;;;;7.84;100.00;103071.08;1997071;71;32841;-73
2021/12/20 10:42:04;;;;;;;46.10;43.10;;;;;;;7.83;100.00;103061.63;2007298;71;32846;-71
2021/12/20 10:47:40;;;;;;;46.10;43.00;;;;;;;7.88;100.00;103052.98;1994183;71;32476;-81
2021/12/20 10:53:51;;;;;;;43.27;40.37;;;;;;;7.84;100.00;103042.02;2014890;71;33020;-78
2021/12/20 10:59:37;;;;;;;44.23;41.33;;;;;;;7.94;100.00;103036.91;2015030;71;32852;-78
2021/12/20 11:05:25;;;;;;;44.80;42.00;;;;;;;7.96;100.00;103038.09;2005939;71;33441;-78
2021/12/20 11:14:36;;;;;;;43.70;40.90;;;;;;;7.91;100.00;103019.89;2011441;71;33341;-75
2021/12/20 11:20:26;;;;;;;44.97;42.07;;;;;;;7.93;100.00;103026.05;1991682;71;32896;-77
2021/12/20 11:26:27;;;;;;;45.07;42.17;;;;;;;8.10;100.00;103026.77;2000849;71;32910;-76
2021/12/20 11:32:14;;;;;;;42.37;39.67;;;;;;;8.13;100.00;103011.63;2009349;71;32907;-76
2021/12/20 11:38:08;;;;;;;41.90;39.00;;;;;;;8.13;100.00;103015.78;2006028;71;32921;-76
2021/12/20 11:43:59;;;;;;;42.53;39.47;;;;;;;8.24;100.00;103000.77;2009507;71;32823;-75
2021/12/20 11:50:00;;;;;;;44.80;41.80;;;;;;;8.19;100.00;102995.02;2016649;71;32945;-76
2021/12/20 11:55:57;;;;;;;42.93;40.43;;;;;;;8.19;100.00;102990.88;2000354;71;33344;-72
2021/12/20 12:01:47;;;;;;;42.23;39.53;;;;;;;8.17;100.00;102979.15;2013662;71;33520;-74
2021/12/20 12:07:38;;;;;;;43.63;40.40;;;;;;;8.11;100.00;102976.41;2011911;71;32803;-76
2021/12/20 12:13:35;;;;;;;40.40;37.80;;;;;;;8.21;100.00;102976.82;1940042;74;33566;-76
2021/12/20 12:19:38;;;;;;;40.07;37.40;;;;;;;8.26;100.00;102971.45;2015217;71;33377;-73
2021/12/20 12:25:58;;;;;;;42.13;39.53;;;;;;;8.24;100.00;102955.08;2011378;71;33723;-74
2021/12/20 12:32:04;;;;;;;43.50;40.80;;;;;;;8.17;100.00;102958.95;2011204;71;32843;-73
2021/12/20 12:38:17;;;;;;;42.17;39.23;;;;;;;8.32;100.00;102948.47;2009503;71;32897;-73
2021/12/20 12:44:18;;;;;;;38.87;36.47;;;;;;;8.27;100.00;102935.78;2017062;71;32827;-73
2021/12/20 12:50:31;;;;;;;40.10;37.60;;;;;;;8.19;100.00;102920.27;2015042;71;32821;-70
2021/12/20 12:56:35;;;;;;;40.90;38.23;;;;;;;8.14;100.00;102921.45;2006149;71;32856;-75
2021/12/20 13:02:44;;;;;;;43.37;40.53;;;;;;;8.28;100.00;102909.80;2017391;71;32841;-73
2021/12/20 13:08:34;;;;;;;39.27;36.87;;;;;;;8.33;100.00;102892.56;2017056;70;32997;-76
2021/12/20 13:14:34;;;;;;;42.20;39.30;;;;;;;8.29;100.00;102899.58;2048919;69;32788;-73
2021/12/20 13:20:34;;;;;;;39.47;36.83;;;;;;;8.24;100.00;102895.55;2016606;71;32821;-71
2021/12/20 13:26:21;;;;;;;40.77;37.90;;;;;;;8.25;100.00;102885.33;2009377;71;32845;-71
2021/12/20 13:32:13;;;;;;;40.17;37.30;;;;;;;8.18;100.00;102876.19;2013441;71;33402;-75
2021/12/20 13:38:30;;;;;;;42.77;39.67;;;;;;;8.24;100.00;102875.32;2016694;71;32884;-73
2021/12/20 13:44:26;;;;;;;37.40;34.50;;;;;;;8.32;100.00;102870.09;2009742;71;33304;-71
2021/12/20 13:50:24;;;;;;;38.00;35.33;;;;;;;8.41;100.00;102868.23;2003833;71;33326;-74
2021/12/20 13:56:13;;;;;;;39.33;36.60;;;;;;;8.34;100.00;102873.50;2013089;71;33348;-74
2021/12/20 14:02:05;;;;;;;39.47;36.30;;;;;;;8.36;100.00;102865.80;2014775;71;32912;-76
2021/12/20 14:07:59;;;;;;;39.33;36.83;;;;;;;8.43;100.00;102852.79;1994939;71;33394;-74
2021/12/20 14:13:46;;;;;;;40.13;37.23;;;;;;;8.54;100.00;102845.14;1995227;71;32838;-74
2021/12/20 14:20:09;;;;;;;41.20;38.40;;;;;;;8.38;100.00;102852.60;1998808;71;33391;-72
2021/12/20 14:26:16;;;;;;;39.60;36.80;;;;;;;8.27;100.00;102846.33;2004512;71;32777;-73
2021/12/20 14:32:09;;;;;;;38.20;35.20;;;;;;;8.30;100.00;102844.56;2014855;70;32882;-76
2021/12/20 14:37:59;;;;;;;41.00;37.90;;;;;;;8.28;100.00;102839.73;1991028;71;32846;-74
2021/12/20 14:44:15;;;;;;;39.00;36.27;;;;;;;8.37;100.00;102830.13;2009385;71;32912;-73
2021/12/20 14:50:07;;;;;;;43.47;40.57;;;;;;;8.26;100.00;102827.48;1985718;71;28002;-75
2021/12/20 14:56:00;;;;;;;42.50;39.50;;;;;;;8.20;100.00;102828.38;2006330;71;32924;-72
2021/12/20 15:01:50;;;;;;;42.20;39.27;;;;;;;8.19;100.00;102826.68;2009614;71;33453;-74
2021/12/20 15:07:39;;;;;;;44.00;40.37;;;;;;;8.13;100.00;102828.40;2016500;71;32902;-72
2021/12/20 15:13:27;;;;;;;43.90;40.20;;;;;;;8.16;100.00;102832.14;2000612;71;32867;-74
2021/12/20 15:19:15;;;;;;;42.73;39.63;;;;;;;8.30;100.00;102837.07;2016750;71;32919;-77
2021/12/20 15:25:04;;;;;;;42.67;39.57;;;;;;;8.05;100.00;102836.96;1940698;73;33011;-75
2021/12/20 15:30:56;;;;;;;42.97;39.60;;;;;;;8.16;100.00;102832.66;2005780;70;32846;-77
2021/12/20 17:06:10;;;;;;;46.83;43.47;;;;;;;7.84;100.00;102823.96;1921186;73;33052;-75
2021/12/20 17:12:14;;;;;;;47.33;43.83;;;;;;;7.72;100.00;102819.13;1932418;73;33098;-74
2021/12/20 17:18:17;;;;;;;47.60;44.10;;;;;;;7.67;100.00;102829.98;1811309;77;86148;-77
2021/12/20 17:24:20;;;;;;;44.73;41.50;;;;;;;7.85;100.00;102827.91;1915596;73;86408;-77
2021/12/20 17:30:25;;;;;;;48.57;44.70;;;;;;;7.77;100.00;102826.77;1823020;75;86752;-76
2021/12/20 17:36:11;;;;;;;49.37;45.83;;;;;;;7.78;100.00;102826.56;1911403;72;86413;-75
2021/12/20 17:41:56;;;;;;;48.80;45.47;;;;;;;7.75;100.00;102826.98;1872918;73;39555;-77
2021/12/20 17:47:42;;;;;;;51.43;47.57;;;;;;;7.65;100.00;102822.45;1792811;78;86752;-76
2021/12/20 17:53:27;;;;;;;50.43;46.87;;;;;;;7.70;100.00;102826.77;1869856;75;86277;-75
2021/12/20 17:59:10;;;;;;;46.90;43.30;;;;;;;7.69;100.00;102815.95;1910182;74;85731;-76
2021/12/20 18:04:58;;;;;;;51.17;47.17;;;;;;;7.73;100.00;102813.06;1903542;74;39532;-77
2021/12/20 18:10:44;;;;;;;47.97;44.20;;;;;;;7.80;100.00;102811.11;1788943;77;86060;-75
2021/12/20 18:19:42;;;;;;;47.33;43.73;;;;;;;7.68;100.00;102815.63;1865682;75;86834;-76
2021/12/20 18:25:28;;;;;;;47.70;44.27;;;;;;;7.69;100.00;102811.80;1862968;76;86238;-79
2021/12/20 18:31:13;;;;;;;45.23;41.80;;;;;;;7.74;100.00;102810.62;1938051;72;86173;-77
2021/12/20 18:36:57;;;;;;;47.23;43.40;;;;;;;7.82;100.00;102800.69;1847608;73;39621;-78
2021/12/20 18:42:42;;;;;;;47.30;43.83;;;;;;;7.58;100.00;102800.02;1803569;77;86428;-74
2021/12/20 18:48:28;;;;;;;48.53;44.93;;;;;;;7.54;100.00;102802.37;1864107;74;86816;-76
2021/12/20 18:54:13;;;;;;;49.40;45.87;;;;;;;7.49;100.00;102804.08;1910201;74;86708;-76
2021/12/20 18:59:57;;;;;;;46.60;43.17;;;;;;;7.48;100.00;102801.88;1906426;74;40640;-74
2021/12/20 19:05:46;;;;;;;47.37;43.77;;;;;;;7.48;100.00;102793.58;1867612;76;86197;-78
2021/12/20 19:11:38;;;;;;;50.37;46.73;;;;;;;7.43;100.00;102807.20;1860157;76;86531;-75
2021/12/20 19:17:23;;;;;;;49.50;45.73;;;;;;;7.23;100.00;102807.78;1821531;78;86841;-72
2021/12/20 19:23:08;;;;;;;46.33;42.80;;;;;;;7.33;100.00;102810.41;1920001;73;86567;-78
2021/12/20 19:28:53;;;;;;;47.73;44.17;;;;;;;7.56;100.00;102798.87;1906342;74;39563;-74
2021/12/20 19:34:38;;;;;;;48.63;44.80;;;;;;;7.51;100.00;102798.66;1865536;76;86900;-75
2021/12/20 19:40:23;;;;;;;45.00;41.70;;;;;;;7.43;100.00;102785.61;1825565;76;86653;-77
2021/12/20 19:46:07;;;;;;;48.17;44.43;;;;;;;7.45;100.00;102785.70;1910386;73;86539;-76
2021/12/20 19:51:55;;;;;;;46.63;43.10;;;;;;;7.41;100.00;102790.49;1850032;75;86299;-75
2021/12/20 19:57:38;;;;;;;46.80;43.43;;;;;;;7.23;100.00;102805.84;1857013;76;86155;-78
2021/12/20 20:03:24;;;;;;;46.53;43.10;;;;;;;7.22;100.00;102790.34;1816143;77;86412;-75
2021/12/20 20:09:09;;;;;;;51.57;47.67;;;;;;;7.33;100.00;102794.34;1944017;72;87177;-75
2021/12/20 20:14:53;;;;;;;48.20;44.37;;;;;;;7.10;100.00;102794.80;1902549;74;39995;-78
2021/12/20 20:20:38;;;;;;;47.73;44.13;;;;;;;7.07;100.00;102798.01;1884996;74;85634;-74
2021/12/20 20:26:22;;;;;;;50.07;46.17;;;;;;;7.02;100.00;102796.41;1885114;75;86642;-77
2021/12/20 20:32:09;;;;;;;47.97;44.27;;;;;;;7.07;100.00;102799.92;1915445;74;86565;-74
2021/12/20 20:37:54;;;;;;;50.33;46.73;;;;;;;7.06;100.00;102796.86;1977707;71;40245;-76
2021/12/20 20:43:38;;;;;;;54.77;51.10;;;;;;;7.01;100.00;102802.17;1891471;74;86682;-73
2021/12/20 20:49:24;;;;;;;55.43;51.17;;;;;;;6.86;100.00;102804.62;1876325;75;86537;-78
2021/12/20 20:55:10;;;;;;;55.03;51.23;;;;;;;6.77;100.00;102805.89;1939023;73;86120;-76
2021/12/20 21:07:04;;;;;;;54.27;49.97;;;;;;;6.68;100.00;102807.16;1937641;70;39606;-83
2021/12/20 21:12:46;;;;;;;52.73;48.57;;;;;;;6.64;100.00;102799.51;1819791;75;86395;-74
2021/12/20 21:18:35;;;;;;;50.97;47.43;;;;;;;6.59;100.00;102788.27;1882896;73;86573;-80
2021/12/20 21:24:21;;;;;;;52.90;49.40;;;;;;;6.49;100.00;102779.55;1888362;74;85328;-83
2021/12/20 21:30:08;;;;;;;53.67;49.77;;;;;;;6.50;100.00;102789.01;1919159;74;85514;-80
2021/12/20 21:35:55;;;;;;;52.47;48.77;;;;;;;6.52;100.00;102783.26;1982690;71;40345;-78
2021/12/20 21:41:40;;;;;;;50.90;47.40;;;;;;;6.55;100.00;102780.06;1838293;75;86780;-76
2021/12/20 21:47:25;;;;;;;55.70;51.67;;;;;;;6.38;100.00;102777.72;1888218;73;86212;-75
2021/12/20 21:53:10;;;;;;;56.47;52.20;;;;;;;6.37;100.00;102780.16;1916427;72;86167;-75
2021/12/20 21:58:55;;;;;;;53.83;50.03;;;;;;;6.56;100.00;102781.77;1981922;71;39683;-76
2021/12/20 22:04:39;;;;;;;50.67;46.87;;;;;;;6.61;100.00;102779.23;1844694;76;86532;-76
2021/12/20 22:10:31;;;;;;;59.10;54.77;;;;;;;6.48;100.00;102775.08;1836455;75;86527;-75
2021/12/20 22:16:15;;;;;;;53.57;50.00;;;;;;;6.42;100.00;102742.81;1922362;73;85650;-74
2021/12/20 22:22:01;;;;;;;54.07;50.23;;;;;;;6.78;100.00;102770.31;1979059;71;40132;-75
2021/12/20 22:27:45;;;;;;;53.63;50.23;;;;;;;6.82;100.00;102764.67;1881691;74;85483;-75
2021/12/20 22:33:29;;;;;;;55.67;51.93;;;;;;;6.63;100.00;102768.84;1870889;74;86611;-77
2021/12/20 22:39:14;;;;;;;45.43;42.00;;;;;;;6.83;100.00;102763.62;1912876;74;85445;-75
2021/12/20 22:44:58;;;;;;;56.33;52.63;;;;;;;7.01;100.00;102760.73;1971879;71;39551;-74
2021/12/20 22:50:43;;;;;;;50.63;47.53;;;;;;;6.87;100.00;102752.98;1833774;76;86944;-76
2021/12/20 22:56:27;;;;;;;51.10;47.90;;;;;;;6.90;100.00;102761.36;1882107;73;86728;-77
2021/12/20 23:02:12;;;;;;;45.63;42.57;;;;;;;6.90;100.00;102755.84;1923262;73;85767;-76
2021/12/20 23:07:57;;;;;;;50.70;47.70;;;;;;;6.94;100.00;102760.72;1979143;70;39919;-77
2021/12/20 23:13:52;;;;;;;48.63;45.53;;;;;;;7.00;100.00;102762.64;1829162;76;85772;-77
2021/12/20 23:19:27;;;;;;;49.07;46.00;;;;;;;6.90;100.00;102748.93;1897473;74;86860;-77
2021/12/20 23:25:12;;;;;;;51.40;48.20;;;;;;;6.92;100.00;102753.73;1911539;74;86183;-76
2021/12/20 23:30:57;;;;;;;50.10;46.83;;;;;;;6.93;100.00;102760.95;1975557;71;39681;-77
2021/12/20 23:36:43;;;;;;;43.97;40.80;;;;;;;6.95;100.00;102751.91;1841139;76;86508;-77
2021/12/20 23:42:33;;;;;;;43.73;40.73;;;;;;;6.69;100.00;102751.39;1870173;75;86492;-77
2021/12/20 23:48:14;;;;;;;45.57;42.20;;;;;;;6.87;100.00;102751.60;1903845;72;86199;-78
2021/12/20 23:53:56;;;;;;;49.83;46.17;;;;;;;6.74;100.00;102749.70;1981685;71;40136;-79
2021/12/20 23:59:40;;;;;;;47.50;44.03;;;;;;;6.68;100.00;102748.31;1830444;75;86860;-77
